Waldport, OR (97394)

09:08 AM PDT am 30. Juli 2015 (GMT -0700)
Mr.Wizard | | Change Station
CLOSE
Current Station
Persönliche Wetterstationen
Location: Waldport, OR
Höhe: 56 ft
Wetterstationen in der Umgebung

Höhe 56 ft 44.42 °N, 124.08 °W | Updated 3 seconds ago

Heiter
Heiter
54.2 °F
gefühlte 54.2 °F
N
0.0
Wind Wechselnd Wind aus Nordwest
Gusts 5.0 mph

Heute
Max. -- | schwach -- °F
--% Regenrisiko
Gestern
Max. -- | schwach -- °F
Precip. -- inch
6:00 AM 8:43 PM
Zweites Viertel, 99% visible
Druck 30.04 inch
Sichtweite 4.0 Meilen
Wolken Heiter
Taupunkt 38 °F
Feuchtigkeit 55%
Regen 0.00 inch
Schneehöhe Nicht verfügbar..
UV 16.0 von 12
Pollen 4.20 von 12
Luftqualität Nicht verfügbar..
Flu Activity Nicht verfügbar..
METAR KONP 301555Z AUTO 33004KT 4SM HZ CLR 16/12 A3004 RMK AO2

More Conditions Fewer Conditions

Druck 30.04 inch
Sichtweite 4.0 Meilen
Wolken Heiter
Taupunkt 38 °F
Feuchtigkeit 55%
Regen 0.00 inch
Schneehöhe Nicht verfügbar..
UV 16.0 von 12
Pollen 4.20 von 12
Luftqualität Nicht verfügbar..
Flu Activity Nicht verfügbar..
METAR KONP 301555Z AUTO 33004KT 4SM HZ CLR 16/12 A3004 RMK AO2

More Conditions Fewer Conditions

10-Day Weather Forecast

×

Almanac

Astronomie

Jul. 30, 2015 Aufgang Untergang
Genaue Zeit
Bürgerliche Dämmerung
Nautische Dämmerung
Astronomische Dämmerung
Mond
Länge des sichtbaren Lichts
Tageslänge
Tomorrow will be .
, % of the Moon is Illuminated

Heutige Rekorde

State Highs State Lows

Community

WunderPhotos

Upload Photos

1,842,412 Fotos hochgeladen!

WunderBlogs® & News

Nearby

Luftqualität

  Luftqualität LQ Index Schadstoff
Not available.

Schneehöhe

Station Depth Höhe

Erdbebenaktivität

Stadt Distance Mag. Time & Date
Minimum magnitude displayed is 2.5.

küstennahe Wassertemperaturen

Ort Temperatur

Stations

Wetterstationen in der Umgebung

Stationsstandort Temp. Windchill Taupunkt Feuchtigkeit Wind Precip. Höhe Aktualisiert Art